Time;durP1;ratioP1;P1;durP2;ratioP2;P2;SDS_P1;SDS_P2;PMS_P1;PMS_P2;Temp;Humidity;BMP_temperature;BMP_pressure;BME280_temperature;BME280_humidity;BME280_pressure;Samples;Min_cycle;Max_cycle;Signal;HPM_P1;HPM_P2
2023/04/20 00:01:51;;;;;;;23.50;16.55;;;;;;;;;;5016514;28;20077;-56
2023/04/20 00:04:16;;;;;;;22.08;16.83;;;;;;;;;;5011910;28;20049;-56
2023/04/20 00:06:42;;;;;;;20.00;15.85;;;;;;;;;;5000657;28;20031;-56
2023/04/20 00:09:08;;;;;;;21.13;16.55;;;;;;;;;;4996784;28;20088;-56
2023/04/20 00:11:34;;;;;;;21.10;15.25;;;;;;;;;;4996836;28;20041;-56
2023/04/20 00:13:59;;;;;;;23.80;16.42;;;;;;;;;;4996051;28;20035;-56
2023/04/20 00:16:25;;;;;;;19.45;15.57;;;;;;;;;;5012372;28;20042;-56
2023/04/20 00:18:50;;;;;;;20.98;15.93;;;;;;;;;;4996439;28;20468;-56
2023/04/20 00:21:15;;;;;;;21.83;16.75;;;;;;;;;;4996840;28;20034;-56
2023/04/20 00:23:41;;;;;;;22.42;16.27;;;;;;;;;;4996419;28;20030;-56
2023/04/20 00:26:06;;;;;;;20.40;15.55;;;;;;;;;;4996926;28;20022;-56
2023/04/20 00:28:32;;;;;;;21.70;15.35;;;;;;;;;;4997157;28;20015;-56
2023/04/20 00:30:57;;;;;;;21.40;14.95;;;;;;;;;;5011615;28;20424;-56
2023/04/20 00:33:22;;;;;;;20.17;14.57;;;;;;;;;;4994913;28;20044;-56
2023/04/20 00:35:48;;;;;;;17.73;14.52;;;;;;;;;;5011570;28;20420;-56
2023/04/20 00:38:14;;;;;;;21.48;15.40;;;;;;;;;;4995090;28;20412;-56
2023/04/20 00:40:41;;;;;;;18.42;14.50;;;;;;;;;;4996303;28;20040;-56
2023/04/20 00:43:10;;;;;;;20.27;15.63;;;;;;;;;;5011086;28;20428;-56
2023/04/20 00:45:36;;;;;;;19.05;14.85;;;;;;;;;;4994648;28;20121;-56
2023/04/20 00:48:01;;;;;;;20.92;15.25;;;;;;;;;;4994663;28;20113;-57
2023/04/20 00:50:27;;;;;;;21.63;15.95;;;;;;;;;;4978530;28;20045;-57
2023/04/20 00:52:52;;;;;;;19.42;14.13;;;;;;;;;;4996076;28;20031;-57
2023/04/20 00:55:19;;;;;;;17.75;14.05;;;;;;;;;;5010760;28;20018;-57
2023/04/20 00:57:44;;;;;;;18.83;14.13;;;;;;;;;;4996250;28;20049;-57
2023/04/20 01:00:10;;;;;;;17.05;13.60;;;;;;;;;;5011235;28;20442;-56
2023/04/20 01:02:35;;;;;;;18.02;14.40;;;;;;;;;;4995805;28;20030;-56
2023/04/20 01:05:01;;;;;;;18.23;13.57;;;;;;;;;;5009604;28;20018;-56
2023/04/20 01:07:28;;;;;;;16.55;13.18;;;;;;;;;;4994773;28;20022;-56
2023/04/20 01:09:54;;;;;;;14.18;11.82;;;;;;;;;;4996017;28;20022;-56
2023/04/20 01:12:19;;;;;;;14.85;11.82;;;;;;;;;;4995928;28;20049;-56
2023/04/20 01:14:45;;;;;;;16.58;12.32;;;;;;;;;;4994737;28;20121;-56
2023/04/20 01:17:10;;;;;;;12.15;10.77;;;;;;;;;;4995619;28;20030;-56
2023/04/20 01:19:35;;;;;;;11.85;10.50;;;;;;;;;;4995225;28;20038;-56
2023/04/20 01:22:01;;;;;;;10.55;9.35;;;;;;;;;;4995499;28;20030;-56
2023/04/20 01:24:26;;;;;;;10.45;9.45;;;;;;;;;;4995817;28;20027;-56
2023/04/20 01:26:52;;;;;;;11.85;10.45;;;;;;;;;;4994475;28;20026;-56
2023/04/20 01:29:17;;;;;;;12.90;10.88;;;;;;;;;;5010121;28;20031;-56
2023/04/20 01:31:42;;;;;;;11.27;10.07;;;;;;;;;;4994839;28;20105;-56
2023/04/20 01:34:08;;;;;;;12.93;11.13;;;;;;;;;;5011090;28;20369;-56
2023/04/20 01:36:33;;;;;;;15.02;12.13;;;;;;;;;;4993642;28;20157;-56
2023/04/20 01:38:59;;;;;;;14.18;12.55;;;;;;;;;;4993247;28;20065;-56
2023/04/20 01:41:27;;;;;;;16.33;13.05;;;;;;;;;;4995042;28;20128;-56
2023/04/20 01:43:55;;;;;;;16.98;13.55;;;;;;;;;;4993478;28;20038;-56
2023/04/20 01:46:20;;;;;;;18.33;14.70;;;;;;;;;;4994823;28;20457;-56
2023/04/20 01:48:45;;;;;;;17.35;13.70;;;;;;;;;;4993434;28;20122;-56
2023/04/20 01:51:11;;;;;;;13.65;11.45;;;;;;;;;;4995325;28;20030;-56
2023/04/20 01:53:37;;;;;;;13.68;10.80;;;;;;;;;;4993752;28;20034;-56
2023/04/20 01:56:03;;;;;;;13.15;11.63;;;;;;;;;;4994926;28;20088;-56
2023/04/20 01:58:28;;;;;;;13.68;11.63;;;;;;;;;;4994919;28;20461;-57
2023/04/20 02:00:54;;;;;;;14.07;11.45;;;;;;;;;;5010118;28;20058;-57
2023/04/20 02:03:19;;;;;;;13.32;11.93;;;;;;;;;;5010054;28;20022;-57
2023/04/20 02:05:45;;;;;;;14.00;12.13;;;;;;;;;;5009566;28;20030;-57
2023/04/20 02:08:11;;;;;;;15.82;11.68;;;;;;;;;;5006898;28;20041;-56
2023/04/20 02:10:38;;;;;;;14.48;12.40;;;;;;;;;;5012241;28;20468;-56
2023/04/20 02:13:03;;;;;;;13.43;11.90;;;;;;;;;;5014065;28;20033;-56
2023/04/20 02:15:30;;;;;;;14.25;11.93;;;;;;;;;;4980176;28;20034;-56
2023/04/20 02:17:56;;;;;;;14.00;11.82;;;;;;;;;;4995720;28;20153;-56
2023/04/20 02:20:21;;;;;;;15.30;12.05;;;;;;;;;;4994295;28;20028;-56
2023/04/20 02:22:46;;;;;;;14.35;11.35;;;;;;;;;;4993488;28;20054;-56
2023/04/20 02:25:13;;;;;;;15.13;11.93;;;;;;;;;;4993287;28;20034;-56
2023/04/20 02:27:38;;;;;;;17.98;13.43;;;;;;;;;;4994716;28;20033;-56
2023/04/20 02:30:04;;;;;;;16.83;12.38;;;;;;;;;;4993686;28;20022;-56
2023/04/20 02:32:30;;;;;;;13.73;11.93;;;;;;;;;;4994593;28;20038;-56
2023/04/20 02:34:56;;;;;;;13.45;12.00;;;;;;;;;;4994492;28;20033;-56
2023/04/20 02:37:24;;;;;;;15.38;12.68;;;;;;;;;;4994644;28;20433;-56
2023/04/20 02:39:50;;;;;;;14.57;12.70;;;;;;;;;;4993942;28;20118;-56
2023/04/20 02:42:16;;;;;;;16.95;13.30;;;;;;;;;;4994791;28;20089;-56
2023/04/20 02:44:42;;;;;;;20.30;15.45;;;;;;;;;;5009493;28;20469;-56
2023/04/20 02:47:08;;;;;;;24.25;17.00;;;;;;;;;;4976920;28;20520;-56
2023/04/20 02:49:33;;;;;;;24.52;16.48;;;;;;;;;;4994368;28;20088;-55
2023/04/20 02:52:01;;;;;;;23.38;16.60;;;;;;;;;;4993249;28;20026;-55
2023/04/20 02:54:26;;;;;;;21.38;15.35;;;;;;;;;;5009654;28;20077;-55
2023/04/20 02:56:52;;;;;;;21.42;16.20;;;;;;;;;;5009349;28;20515;-55
2023/04/20 02:59:17;;;;;;;20.55;15.70;;;;;;;;;;5009030;28;20033;-56
2023/04/20 03:02:03;;;;;;;18.27;14.55;;;;;;;;;;5009287;28;20030;-56
2023/04/20 03:04:29;;;;;;;18.83;14.45;;;;;;;;;;5008991;28;20038;-57
2023/04/20 03:07:18;;;;;;;19.83;14.45;;;;;;;;;;4986414;28;20169;-63
2023/04/20 03:09:44;;;;;;;17.88;14.05;;;;;;;;;;5009782;28;20031;-63
2023/04/20 03:12:19;;;;;;;18.05;14.00;;;;;;;;;;4994186;28;20046;-63
2023/04/20 03:14:59;;;;;;;23.77;18.27;;;;;;;;;;4994037;28;20096;-63
2023/04/20 03:17:39;;;;;;;21.15;16.17;;;;;;;;;;5016407;23;20041;-63
2023/04/20 03:20:05;;;;;;;21.20;15.23;;;;;;;;;;5011597;23;20061;-56
2023/04/20 03:22:35;;;;;;;20.90;16.55;;;;;;;;;;5012349;28;20040;-56
2023/04/20 03:25:01;;;;;;;21.73;15.43;;;;;;;;;;5012043;28;20122;-56
2023/04/20 03:27:53;;;;;;;21.35;15.38;;;;;;;;;;5014226;28;20172;-56
2023/04/20 03:30:19;;;;;;;22.92;15.80;;;;;;;;;;4999304;28;20026;-56
2023/04/20 03:32:49;;;;;;;25.48;16.80;;;;;;;;;;4999713;28;20033;-56
2023/04/20 03:35:14;;;;;;;23.45;16.65;;;;;;;;;;4999925;28;20030;-56
2023/04/20 03:37:39;;;;;;;24.88;16.77;;;;;;;;;;4999460;28;20018;-56
2023/04/20 03:40:06;;;;;;;27.17;18.30;;;;;;;;;;5009554;28;20473;-55
2023/04/20 03:42:31;;;;;;;29.33;18.58;;;;;;;;;;4999685;28;20025;-56
2023/04/20 03:44:57;;;;;;;31.88;18.83;;;;;;;;;;5015637;28;20038;-56
2023/04/20 03:47:22;;;;;;;30.10;19.98;;;;;;;;;;5015034;28;20445;-56
2023/04/20 03:49:48;;;;;;;29.52;19.00;;;;;;;;;;5015652;28;20026;-56
2023/04/20 03:52:13;;;;;;;27.73;18.10;;;;;;;;;;5016542;28;20030;-57
2023/04/20 03:54:39;;;;;;;34.65;20.50;;;;;;;;;;5015587;28;20025;-57
2023/04/20 03:57:05;;;;;;;29.38;19.48;;;;;;;;;;4999088;28;20381;-57
2023/04/20 03:59:30;;;;;;;35.00;22.25;;;;;;;;;;4998708;28;20072;-56
2023/04/20 04:01:58;;;;;;;37.17;21.48;;;;;;;;;;4998431;28;20053;-57
2023/04/20 04:04:24;;;;;;;36.33;22.70;;;;;;;;;;5015029;28;20022;-57
2023/04/20 04:06:50;;;;;;;43.80;25.55;;;;;;;;;;5016232;28;20037;-57
2023/04/20 04:09:16;;;;;;;43.53;25.80;;;;;;;;;;5014028;28;20022;-56
2023/04/20 04:11:41;;;;;;;37.83;22.98;;;;;;;;;;5016470;28;20010;-56
2023/04/20 04:14:06;;;;;;;39.40;23.08;;;;;;;;;;5048393;28;20087;-56
2023/04/20 04:16:35;;;;;;;38.45;24.17;;;;;;;;;;5014724;28;20460;-56
2023/04/20 04:19:00;;;;;;;36.20;22.20;;;;;;;;;;5014568;28;20092;-56
2023/04/20 04:21:27;;;;;;;33.28;20.80;;;;;;;;;;5017520;28;20040;-56
2023/04/20 04:23:57;;;;;;;35.72;21.85;;;;;;;;;;5014339;28;20562;-62
2023/04/20 04:26:37;;;;;;;36.72;21.00;;;;;;;;;;5000008;28;20026;-63
2023/04/20 04:29:03;;;;;;;29.92;20.42;;;;;;;;;;5014809;28;20464;-55
2023/04/20 04:31:30;;;;;;;30.65;19.67;;;;;;;;;;4994281;28;20440;-63
2023/04/20 04:34:02;;;;;;;30.80;20.20;;;;;;;;;;5013212;28;20513;-64
2023/04/20 04:36:35;;;;;;;32.22;20.58;;;;;;;;;;4998066;28;20032;-63
2023/04/20 04:39:01;;;;;;;32.13;20.85;;;;;;;;;;4997487;28;20029;-63
2023/04/20 04:41:27;;;;;;;32.45;21.10;;;;;;;;;;4985692;28;20112;-63
2023/04/20 04:43:59;;;;;;;37.75;22.02;;;;;;;;;;4997004;28;20465;-63
2023/04/20 04:46:28;;;;;;;41.08;25.10;;;;;;;;;;4996350;28;20040;-63
2023/04/20 04:48:59;;;;;;;36.80;24.73;;;;;;;;;;4997066;28;20404;-63
2023/04/20 04:51:25;;;;;;;42.33;25.05;;;;;;;;;;5015557;28;20108;-63
2023/04/20 04:53:50;;;;;;;37.28;22.25;;;;;;;;;;4997733;28;20125;-63
2023/04/20 04:56:17;;;;;;;34.97;21.70;;;;;;;;;;5015305;28;20034;-63
2023/04/20 04:58:43;;;;;;;32.50;20.73;;;;;;;;;;5015197;28;20033;-63
2023/04/20 05:01:09;;;;;;;30.58;19.08;;;;;;;;;;5015487;28;20033;-65
2023/04/20 05:03:34;;;;;;;27.77;18.42;;;;;;;;;;5016516;28;20068;-61
2023/04/20 05:06:00;;;;;;;27.17;18.10;;;;;;;;;;5014611;28;20030;-61
2023/04/20 05:08:25;;;;;;;27.52;17.95;;;;;;;;;;5015229;28;20101;-61
2023/04/20 05:10:50;;;;;;;26.83;17.75;;;;;;;;;;5015102;28;20079;-61
2023/04/20 05:13:17;;;;;;;27.20;17.95;;;;;;;;;;5015262;28;20033;-61
2023/04/20 05:15:42;;;;;;;26.77;17.73;;;;;;;;;;5014519;28;20034;-61
2023/04/20 05:18:08;;;;;;;26.85;17.17;;;;;;;;;;5015082;28;20044;-61
2023/04/20 05:20:33;;;;;;;27.05;18.05;;;;;;;;;;5014822;28;20045;-61
2023/04/20 05:22:58;;;;;;;28.80;18.92;;;;;;;;;;5014784;28;20503;-61
2023/04/20 05:25:24;;;;;;;26.23;17.48;;;;;;;;;;5011751;28;20116;-61
2023/04/20 05:27:50;;;;;;;26.77;18.00;;;;;;;;;;5012130;28;20214;-61
2023/04/20 05:30:15;;;;;;;29.27;18.52;;;;;;;;;;5010415;28;20383;-61
2023/04/20 05:32:40;;;;;;;30.55;18.85;;;;;;;;;;5010383;28;20030;-61
2023/04/20 05:35:06;;;;;;;29.58;18.52;;;;;;;;;;5008983;28;20108;-61
2023/04/20 05:37:32;;;;;;;26.63;18.15;;;;;;;;;;5010826;28;20121;-61
2023/04/20 05:39:57;;;;;;;30.02;18.80;;;;;;;;;;5013230;28;20034;-61
2023/04/20 05:42:22;;;;;;;26.15;17.90;;;;;;;;;;5013867;28;20092;-61
2023/04/20 05:44:47;;;;;;;23.83;15.23;;;;;;;;;;5014598;28;20080;-61
2023/04/20 05:47:13;;;;;;;27.92;18.52;;;;;;;;;;5013667;28;20137;-61
2023/04/20 05:49:39;;;;;;;27.73;18.13;;;;;;;;;;5013229;28;20036;-61
2023/04/20 05:52:05;;;;;;;27.05;17.95;;;;;;;;;;5011624;28;20037;-61
2023/04/20 05:54:30;;;;;;;30.35;18.20;;;;;;;;;;5013290;28;20034;-61
2023/04/20 05:56:59;;;;;;;66.20;21.48;;;;;;;;;;5012915;28;20465;-61
2023/04/20 05:59:24;;;;;;;37.20;21.55;;;;;;;;;;5014541;28;20026;-61
2023/04/20 06:01:50;;;;;;;31.40;18.13;;;;;;;;;;5014136;28;20037;-61
2023/04/20 06:04:15;;;;;;;24.73;17.02;;;;;;;;;;5013730;28;20057;-61
2023/04/20 06:06:40;;;;;;;26.85;16.98;;;;;;;;;;5012169;28;20030;-61
2023/04/20 06:09:05;;;;;;;28.73;17.92;;;;;;;;;;5010884;28;20029;-61
2023/04/20 06:11:31;;;;;;;27.27;18.10;;;;;;;;;;5012146;28;20026;-61
2023/04/20 06:13:56;;;;;;;28.08;17.40;;;;;;;;;;5012180;28;20025;-61
2023/04/20 06:16:22;;;;;;;23.58;16.55;;;;;;;;;;5012145;28;20066;-61
2023/04/20 06:18:47;;;;;;;25.17;16.85;;;;;;;;;;5012170;28;20073;-61
2023/04/20 06:21:12;;;;;;;25.13;16.25;;;;;;;;;;5012233;28;20033;-61
2023/04/20 06:23:38;;;;;;;24.65;16.05;;;;;;;;;;5014419;28;20042;-61
2023/04/20 06:26:07;;;;;;;22.55;15.02;;;;;;;;;;5013913;28;20109;-61
2023/04/20 06:28:34;;;;;;;24.13;16.20;;;;;;;;;;5014167;28;20476;-61
2023/04/20 06:31:00;;;;;;;43.63;24.30;;;;;;;;;;5014147;28;20416;-61
2023/04/20 06:33:25;;;;;;;23.17;15.15;;;;;;;;;;5013858;28;20018;-61
2023/04/20 06:35:53;;;;;;;21.48;15.27;;;;;;;;;;5013779;28;20061;-60
2023/04/20 06:38:18;;;;;;;25.45;15.68;;;;;;;;;;5014071;28;20025;-60
2023/04/20 06:40:44;;;;;;;23.75;14.90;;;;;;;;;;5014344;28;20044;-61
2023/04/20 06:43:09;;;;;;;21.10;13.35;;;;;;;;;;5013962;28;20026;-61
2023/04/20 06:45:34;;;;;;;22.23;13.30;;;;;;;;;;5012587;28;20415;-61
2023/04/20 06:48:00;;;;;;;23.52;13.77;;;;;;;;;;5013986;28;20030;-61
2023/04/20 06:50:25;;;;;;;17.77;13.15;;;;;;;;;;5013704;28;20040;-61
2023/04/20 06:52:51;;;;;;;20.77;13.40;;;;;;;;;;5014235;28;20057;-61
2023/04/20 06:55:16;;;;;;;19.20;12.50;;;;;;;;;;5013907;28;20045;-61
2023/04/20 06:57:42;;;;;;;17.05;12.57;;;;;;;;;;5013637;28;20115;-61
2023/04/20 07:00:08;;;;;;;18.02;11.80;;;;;;;;;;5013912;28;20056;-61
2023/04/20 07:02:43;;;;;;;19.80;12.55;;;;;;;;;;5014170;28;20026;-61
2023/04/20 07:05:08;;;;;;;19.77;13.48;;;;;;;;;;5017728;28;20034;-61
2023/04/20 07:07:33;;;;;;;15.73;11.60;;;;;;;;;;5017390;28;20484;-61
2023/04/20 07:09:59;;;;;;;21.80;12.32;;;;;;;;;;5017612;28;20028;-61
2023/04/20 07:12:25;;;;;;;19.63;12.13;;;;;;;;;;5016396;28;20040;-61
2023/04/20 07:14:50;;;;;;;14.60;10.98;;;;;;;;;;5017397;28;20025;-61
2023/04/20 07:17:16;;;;;;;16.40;11.70;;;;;;;;;;5017476;28;20032;-61
2023/04/20 07:19:41;;;;;;;19.23;12.75;;;;;;;;;;5016956;28;20451;-61
2023/04/20 07:22:06;;;;;;;13.68;10.13;;;;;;;;;;5017620;28;20041;-61
2023/04/20 07:24:32;;;;;;;15.57;10.50;;;;;;;;;;5017327;28;20037;-61
2023/04/20 07:26:57;;;;;;;12.07;9.57;;;;;;;;;;5017600;28;20037;-61
2023/04/20 07:29:23;;;;;;;16.00;10.60;;;;;;;;;;5016953;28;20433;-62
2023/04/20 07:31:48;;;;;;;14.90;10.13;;;;;;;;;;5017209;28;20137;-61
2023/04/20 07:34:13;;;;;;;15.40;10.95;;;;;;;;;;5017162;28;20037;-61
2023/04/20 07:36:39;;;;;;;16.60;11.20;;;;;;;;;;5016807;28;20029;-61
2023/04/20 07:39:04;;;;;;;21.02;12.05;;;;;;;;;;5016964;28;20108;-61
2023/04/20 07:41:29;;;;;;;17.73;11.35;;;;;;;;;;5017273;28;20033;-61
2023/04/20 07:43:56;;;;;;;13.93;10.63;;;;;;;;;;5016941;28;20025;-62
2023/04/20 07:46:21;;;;;;;16.45;11.52;;;;;;;;;;5015282;28;20032;-61
2023/04/20 07:48:47;;;;;;;16.02;11.25;;;;;;;;;;5016618;28;20096;-54
2023/04/20 07:51:13;;;;;;;12.35;8.95;;;;;;;;;;5040217;23;20091;-54
2023/04/20 07:53:38;;;;;;;11.73;8.52;;;;;;;;;;5050119;22;20065;-62
2023/04/20 07:56:11;;;;;;;12.27;9.82;;;;;;;;;;5036276;28;20026;-61
2023/04/20 07:58:37;;;;;;;13.93;9.90;;;;;;;;;;5036546;28;20460;-61
2023/04/20 08:01:03;;;;;;;14.70;10.85;;;;;;;;;;5034942;28;20507;-61
2023/04/20 08:03:29;;;;;;;12.45;9.32;;;;;;;;;;5036100;28;20078;-54
2023/04/20 08:05:57;;;;;;;14.10;9.85;;;;;;;;;;5064612;23;20795;-61
2023/04/20 08:08:22;;;;;;;11.30;8.68;;;;;;;;;;5064443;23;20151;-54
2023/04/20 08:10:47;;;;;;;13.88;9.43;;;;;;;;;;5049901;23;20151;-61
2023/04/20 08:13:13;;;;;;;14.07;9.85;;;;;;;;;;5049212;23;20060;-61
2023/04/20 08:15:56;;;;;;;12.43;8.68;;;;;;;;;;5048218;23;20399;-61
2023/04/20 08:18:21;;;;;;;14.15;8.45;;;;;;;;;;5028058;23;20450;-61
2023/04/20 08:20:46;;;;;;;13.70;8.93;;;;;;;;;;5035840;28;20052;-54
2023/04/20 08:23:13;;;;;;;13.82;8.82;;;;;;;;;;5035940;28;20387;-54
2023/04/20 08:25:39;;;;;;;10.70;8.68;;;;;;;;;;5035547;28;20028;-54
2023/04/20 08:28:05;;;;;;;13.73;9.40;;;;;;;;;;5035663;28;20387;-54
2023/04/20 08:30:30;;;;;;;10.23;7.95;;;;;;;;;;5035616;28;20029;-54
2023/04/20 08:32:56;;;;;;;11.27;8.63;;;;;;;;;;5035531;28;20044;-54
2023/04/20 08:35:21;;;;;;;11.30;7.80;;;;;;;;;;5035543;28;20041;-54
2023/04/20 08:37:47;;;;;;;9.82;7.82;;;;;;;;;;5035764;28;20044;-54
2023/04/20 08:40:12;;;;;;;12.75;6.85;;;;;;;;;;5035434;28;20044;-54
2023/04/20 08:42:38;;;;;;;10.02;7.45;;;;;;;;;;5035605;28;20037;-54
2023/04/20 08:45:03;;;;;;;12.43;8.25;;;;;;;;;;5035649;28;20026;-54
2023/04/20 08:47:30;;;;;;;13.25;7.80;;;;;;;;;;5035288;28;20068;-54
2023/04/20 08:49:55;;;;;;;10.43;7.38;;;;;;;;;;5017915;28;20121;-54
2023/04/20 08:52:21;;;;;;;7.43;5.03;;;;;;;;;;5035194;28;20108;-54
2023/04/20 08:54:46;;;;;;;6.03;4.32;;;;;;;;;;5035196;28;20037;-54
2023/04/20 08:57:12;;;;;;;5.80;5.28;;;;;;;;;;5035668;28;20029;-54
2023/04/20 08:59:38;;;;;;;6.05;5.03;;;;;;;;;;5035625;28;20018;-54
2023/04/20 09:02:10;;;;;;;7.88;6.00;;;;;;;;;;5017046;28;20034;-54
2023/04/20 09:04:35;;;;;;;8.45;6.15;;;;;;;;;;5035235;28;20025;-54
2023/04/20 09:07:01;;;;;;;9.55;6.72;;;;;;;;;;5035244;28;20041;-54
2023/04/20 09:09:27;;;;;;;7.60;6.25;;;;;;;;;;5034917;28;20105;-54
2023/04/20 09:12:01;;;;;;;9.00;6.15;;;;;;;;;;5035366;28;20068;-54
2023/04/20 09:14:26;;;;;;;7.55;6.70;;;;;;;;;;5034974;28;20029;-54
2023/04/20 09:16:52;;;;;;;8.77;7.03;;;;;;;;;;5035017;28;20087;-54
2023/04/20 09:19:22;;;;;;;22.10;13.27;;;;;;;;;;5034600;28;20042;-54
2023/04/20 09:21:49;;;;;;;11.77;8.73;;;;;;;;;;5034578;28;20056;-54
2023/04/20 09:24:14;;;;;;;11.35;8.23;;;;;;;;;;5034600;28;20064;-54
2023/04/20 09:26:39;;;;;;;12.48;8.52;;;;;;;;;;5034024;28;20083;-54
2023/04/20 09:29:16;;;;;;;14.20;8.90;;;;;;;;;;5034502;28;20021;-54
2023/04/20 09:31:42;;;;;;;10.40;8.18;;;;;;;;;;5034427;28;20048;-54
2023/04/20 09:34:07;;;;;;;56.50;33.83;;;;;;;;;;5034676;28;20459;-54
2023/04/20 09:36:40;;;;;;;26.15;16.17;;;;;;;;;;5034398;28;20079;-53
2023/04/20 09:39:10;;;;;;;12.23;9.38;;;;;;;;;;5034560;28;20037;-54
2023/04/20 09:41:36;;;;;;;10.80;7.47;;;;;;;;;;5033895;28;20025;-54
2023/04/20 09:44:02;;;;;;;12.25;7.30;;;;;;;;;;5034246;28;20037;-54
2023/04/20 09:46:30;;;;;;;20.95;12.93;;;;;;;;;;5034654;28;20068;-54
2023/04/20 09:48:56;;;;;;;12.43;7.30;;;;;;;;;;5034337;28;20076;-54
2023/04/20 09:51:21;;;;;;;20.90;14.10;;;;;;;;;;5034115;28;20471;-54
2023/04/20 09:53:48;;;;;;;11.20;8.65;;;;;;;;;;5034245;28;20017;-54
2023/04/20 09:56:14;;;;;;;15.77;8.50;;;;;;;;;;5016638;28;20041;-53
2023/04/20 09:58:39;;;;;;;10.25;7.85;;;;;;;;;;5034019;28;20068;-54
2023/04/20 10:01:08;;;;;;;8.43;7.35;;;;;;;;;;5033984;28;20061;-54
2023/04/20 10:03:34;;;;;;;12.50;8.75;;;;;;;;;;5034159;28;20029;-54
2023/04/20 10:05:59;;;;;;;13.07;8.93;;;;;;;;;;5033905;28;20348;-54
2023/04/20 10:08:24;;;;;;;13.75;8.75;;;;;;;;;;5034147;28;20438;-54
2023/04/20 10:10:50;;;;;;;12.38;8.70;;;;;;;;;;5034113;28;20021;-54
2023/04/20 10:13:20;;;;;;;10.00;7.40;;;;;;;;;;5033815;28;20033;-54
2023/04/20 10:15:46;;;;;;;14.43;8.18;;;;;;;;;;5034015;28;20537;-54
2023/04/20 10:18:16;;;;;;;13.85;8.95;;;;;;;;;;5015977;28;20128;-54
2023/04/20 10:20:41;;;;;;;12.43;7.97;;;;;;;;;;5033923;28;20064;-54
2023/04/20 10:23:09;;;;;;;10.23;7.25;;;;;;;;;;5033908;28;20060;-54
2023/04/20 10:25:35;;;;;;;10.98;7.82;;;;;;;;;;5033484;28;20030;-54
2023/04/20 10:28:04;;;;;;;14.18;7.78;;;;;;;;;;5034201;28;20080;-54
2023/04/20 10:30:30;;;;;;;14.82;8.18;;;;;;;;;;5033797;28;20025;-54
2023/04/20 10:33:05;;;;;;;14.60;10.07;;;;;;;;;;5033559;28;20026;-54
2023/04/20 10:35:40;;;;;;;12.95;9.30;;;;;;;;;;5033431;28;20038;-54
2023/04/20 10:38:05;;;;;;;14.80;9.88;;;;;;;;;;5035366;28;20399;-54
2023/04/20 10:40:31;;;;;;;11.27;7.88;;;;;;;;;;5037685;28;20030;-54
2023/04/20 10:42:56;;;;;;;14.68;9.18;;;;;;;;;;5037773;28;20080;-54
2023/04/20 10:45:32;;;;;;;16.45;10.68;;;;;;;;;;5037840;28;20136;-54
2023/04/20 10:47:57;;;;;;;15.90;9.73;;;;;;;;;;5037567;28;20017;-54
2023/04/20 10:50:23;;;;;;;15.18;10.32;;;;;;;;;;5037521;28;20341;-54
2023/04/20 10:52:49;;;;;;;17.05;9.18;;;;;;;;;;5037417;28;20112;-54
2023/04/20 10:55:21;;;;;;;12.70;9.63;;;;;;;;;;5037304;28;20037;-54
2023/04/20 10:57:47;;;;;;;20.85;11.63;;;;;;;;;;5037903;28;20121;-54
2023/04/20 11:00:22;;;;;;;13.88;9.25;;;;;;;;;;5037934;28;20049;-54
2023/04/20 11:02:49;;;;;;;11.90;8.70;;;;;;;;;;5037491;28;20087;-54
2023/04/20 11:05:14;;;;;;;19.05;11.20;;;;;;;;;;5037190;28;20029;-54
2023/04/20 11:08:06;;;;;;;18.25;12.27;;;;;;;;;;5037214;28;20534;-54
2023/04/20 11:10:38;;;;;;;12.32;8.30;;;;;;;;;;5034313;28;20468;-54
2023/04/20 11:13:04;;;;;;;13.35;7.65;;;;;;;;;;5019150;28;20029;-54
2023/04/20 11:15:30;;;;;;;14.73;9.48;;;;;;;;;;5037325;28;20026;-54
2023/04/20 11:17:55;;;;;;;8.10;7.07;;;;;;;;;;5036862;28;20041;-54
2023/04/20 11:20:20;;;;;;;19.13;14.02;;;;;;;;;;5036974;28;20025;-54
2023/04/20 11:22:55;;;;;;;12.23;6.80;;;;;;;;;;5037116;28;20041;-54
2023/04/20 11:25:20;;;;;;;7.97;5.50;;;;;;;;;;5037109;28;20021;-54
2023/04/20 11:27:46;;;;;;;10.20;4.55;;;;;;;;;;5036813;28;20349;-54
2023/04/20 11:30:11;;;;;;;9.25;4.38;;;;;;;;;;5037003;28;20041;-54
2023/04/20 11:32:37;;;;;;;12.20;6.13;;;;;;;;;;5036970;28;20045;-54
2023/04/20 11:35:06;;;;;;;9.68;5.55;;;;;;;;;;5036957;28;20408;-54
2023/04/20 11:37:31;;;;;;;14.73;7.90;;;;;;;;;;5018777;28;20041;-54
2023/04/20 11:40:00;;;;;;;7.05;4.80;;;;;;;;;;5036545;28;20035;-53
2023/04/20 11:42:26;;;;;;;6.68;4.72;;;;;;;;;;5036725;28;20045;-54
2023/04/20 11:44:51;;;;;;;8.27;5.47;;;;;;;;;;5036389;28;20026;-54
2023/04/20 11:47:17;;;;;;;8.18;5.00;;;;;;;;;;5018691;28;20032;-54
2023/04/20 11:49:42;;;;;;;9.05;4.90;;;;;;;;;;5035579;28;20100;-54
2023/04/20 11:52:07;;;;;;;8.77;4.55;;;;;;;;;;5036569;28;20040;-54
2023/04/20 11:54:33;;;;;;;8.27;4.30;;;;;;;;;;5036366;28;20393;-54
2023/04/20 11:56:59;;;;;;;5.88;3.53;;;;;;;;;;5036551;28;20034;-54
2023/04/20 11:59:25;;;;;;;10.68;4.57;;;;;;;;;;5036557;28;20079;-54
2023/04/20 12:01:51;;;;;;;6.57;4.63;;;;;;;;;;5036449;28;20025;-54
2023/04/20 12:04:16;;;;;;;8.07;4.68;;;;;;;;;;5036135;28;20499;-54
2023/04/20 12:06:41;;;;;;;52.25;17.58;;;;;;;;;;5036387;28;20160;-54
2023/04/20 12:09:07;;;;;;;22.13;11.45;;;;;;;;;;5036636;28;20052;-54
2023/04/20 12:11:32;;;;;;;9.10;4.15;;;;;;;;;;5034882;28;20383;-54
2023/04/20 12:13:59;;;;;;;6.85;4.00;;;;;;;;;;5036003;28;20079;-54
2023/04/20 12:16:24;;;;;;;5.25;3.80;;;;;;;;;;5036194;28;20139;-54
2023/04/20 12:18:50;;;;;;;7.80;4.00;;;;;;;;;;5035701;28;20045;-54
2023/04/20 12:21:15;;;;;;;5.65;3.70;;;;;;;;;;5036116;28;20112;-54
2023/04/20 12:23:42;;;;;;;9.57;4.03;;;;;;;;;;5036255;28;20056;-61
2023/04/20 12:26:08;;;;;;;7.35;3.85;;;;;;;;;;5018010;28;20021;-61
2023/04/20 12:28:33;;;;;;;10.05;4.05;;;;;;;;;;5035578;28;20021;-61
2023/04/20 12:30:58;;;;;;;6.30;3.60;;;;;;;;;;5035922;28;20376;-61
2023/04/20 12:33:24;;;;;;;7.15;4.25;;;;;;;;;;5035633;28;20059;-61
2023/04/20 12:35:49;;;;;;;7.32;4.10;;;;;;;;;;5035440;28;20079;-61
2023/04/20 12:38:14;;;;;;;5.15;3.67;;;;;;;;;;5035471;28;20479;-61
2023/04/20 12:40:40;;;;;;;7.68;4.50;;;;;;;;;;5035788;28;20078;-61
2023/04/20 12:43:05;;;;;;;6.35;3.38;;;;;;;;;;5035333;28;20408;-61
2023/04/20 12:45:30;;;;;;;11.45;3.92;;;;;;;;;;5035653;28;20388;-61
2023/04/20 12:48:00;;;;;;;10.05;4.18;;;;;;;;;;5018038;28;20045;-61
2023/04/20 12:50:25;;;;;;;6.47;4.30;;;;;;;;;;5035557;28;20025;-61
2023/04/20 12:52:51;;;;;;;8.82;4.40;;;;;;;;;;5035552;28;20075;-61
2023/04/20 12:55:17;;;;;;;9.73;3.65;;;;;;;;;;5035185;28;20034;-61
2023/04/20 12:57:42;;;;;;;5.90;4.30;;;;;;;;;;5035044;28;20495;-61
2023/04/20 13:00:08;;;;;;;6.55;3.67;;;;;;;;;;5035354;28;20057;-61
2023/04/20 13:02:34;;;;;;;14.27;5.00;;;;;;;;;;5034856;28;20033;-61
2023/04/20 13:04:59;;;;;;;16.27;6.25;;;;;;;;;;5035385;28;20410;-61
2023/04/20 13:07:26;;;;;;;9.60;3.50;;;;;;;;;;5022548;28;20498;-61
2023/04/20 13:09:52;;;;;;;22.63;8.50;;;;;;;;;;5015292;28;20029;-61
2023/04/20 13:12:18;;;;;;;10.45;5.72;;;;;;;;;;5015480;28;20071;-61
2023/04/20 13:14:43;;;;;;;20.85;8.52;;;;;;;;;;5015309;28;20476;-61
2023/04/20 13:17:08;;;;;;;10.73;2.45;;;;;;;;;;4997423;28;20029;-61
2023/04/20 13:19:34;;;;;;;10.73;5.35;;;;;;;;;;5015441;28;20057;-61
2023/04/20 13:21:59;;;;;;;8.00;3.72;;;;;;;;;;5015091;28;20050;-61
2023/04/20 13:24:24;;;;;;;8.80;3.08;;;;;;;;;;5029662;28;20036;-61
2023/04/20 13:26:51;;;;;;;7.78;3.10;;;;;;;;;;5035004;28;20026;-61
2023/04/20 13:29:17;;;;;;;10.32;2.90;;;;;;;;;;5034936;28;20076;-61
2023/04/20 13:31:43;;;;;;;9.50;3.25;;;;;;;;;;5034275;28;20029;-61
2023/04/20 13:34:08;;;;;;;5.50;2.40;;;;;;;;;;5033652;28;20534;-61
2023/04/20 13:36:33;;;;;;;12.40;4.25;;;;;;;;;;5034502;28;20030;-61
2023/04/20 13:38:59;;;;;;;5.35;2.70;;;;;;;;;;5035330;28;20375;-61
2023/04/20 13:41:25;;;;;;;10.48;4.65;;;;;;;;;;5034640;28;20512;-61
2023/04/20 13:43:50;;;;;;;9.85;3.20;;;;;;;;;;5034858;28;20040;-61
2023/04/20 13:46:16;;;;;;;12.23;5.68;;;;;;;;;;5034530;28;20064;-61
2023/04/20 13:48:41;;;;;;;7.05;2.70;;;;;;;;;;5034706;28;20033;-61
2023/04/20 13:51:07;;;;;;;10.75;3.15;;;;;;;;;;5034466;28;20033;-61
2023/04/20 13:53:32;;;;;;;5.70;2.13;;;;;;;;;;5034524;28;20029;-61
2023/04/20 13:55:58;;;;;;;10.20;2.70;;;;;;;;;;5034408;28;20037;-61
2023/04/20 13:58:23;;;;;;;7.75;2.58;;;;;;;;;;5016690;28;20021;-61
2023/04/20 14:00:49;;;;;;;10.57;5.85;;;;;;;;;;5034023;28;20464;-61
2023/04/20 14:03:14;;;;;;;8.60;2.88;;;;;;;;;;5016594;28;20076;-61
2023/04/20 14:05:40;;;;;;;4.47;2.00;;;;;;;;;;5033515;28;20025;-61
2023/04/20 14:08:06;;;;;;;5.90;2.00;;;;;;;;;;5034237;28;20029;-61
2023/04/20 14:10:32;;;;;;;7.57;2.70;;;;;;;;;;5033128;28;20488;-61
2023/04/20 14:12:59;;;;;;;7.18;2.40;;;;;;;;;;5033522;28;20117;-53
2023/04/20 14:15:24;;;;;;;6.57;2.70;;;;;;;;;;5032355;28;20087;-54
2023/04/20 14:17:50;;;;;;;8.18;2.25;;;;;;;;;;5032855;28;20054;-53
2023/04/20 14:20:15;;;;;;;20.38;7.47;;;;;;;;;;5033731;28;20358;-53